Aérodrome :
LOGIN :

S'inscrire | Disclaimer

   EN    FR    IT 

 










Légende :    VFR   VFR Marginal   IFR   IFR Intensif   IFR Très Intensif
Visi : 
Plafond : 
>= 8 km
>= 3000ft
5 à 8 km
1000 à 3000 ft
1500m à 5 km
500 à 1000 ft
800 à 1500m
200 à 500 ft
< 800m
< 200 ft
Symboles :   Orages  Brouillard  Fortes neiges  Fortes précipitations  Vent > 20 kt
SIGMETs :   Divers  Orages  Givrage  Turbulence  Onde Orograph.  Cendres Volcan.






- Altitude de l'aérodrome : 65 ft
- Code IATA : ADA


LTAF - Adana

DERNIER METAR :
  • 291650Z 21001KT 4500 BR SCT035 BKN100 11/09 Q1019 NOSIG RMK RWY23 25003KT

METARs EXPIRÉS :
  • 291620Z 18003KT 9999 SCT035 BKN100 12/09 Q1019 BECMG TL1700 4000 BR
  • 291550Z 21003KT 9999 SCT035 BKN100 12/08 Q1019 BECMG TL1700 4000 BR RMK RWY23 23003KT
  • 291520Z 20004KT 9999 SCT035 BKN100 13/08 Q1018 BECMG TL1700 4000 BR
  • 291450Z 20006KT 9999 SCT035 BKN100 14/08 Q1018 BECMG 4000 BR
  • 291420Z 18006KT 9999 SCT035 BKN100 15/08 Q1018 NOSIG RMK RWY23 20004KT

TAF TAF LTAF
Valide du 29 à 12h jusqu'au 30 à 12h UTC


291040Z 2912/3012 VRB02KT 9999 SCT035 BKN100
BECMG 2915/2917 4000 -SHRA BR BKN030 BKN090



MET'MAP, la Météo Aéronautique d'un coup d'oeil ! - Copyright ORBIFLY Décembre 2007 - Disclaimer

ORBIFLY MET'MAP TEAM :

Programmation & Développement : Alexandra Zaïnal
Sur une idée originale de : Baudouin d'Aumeries
Assistance à la programmation : Marc-Olivier Méhu
Soutien technique & logistique : Manuel Goepfert

Contact : metmap@orbifly.com




SOURCES & CREDITS :

   NOAA